sensor_id;sensor_type;location;lat;lon;timestamp;pressure;altitude;pressure_sealevel;temperature;humidity
15794;BME280;7999;51.208;4.244;2022-11-15T00:02:32;100742.75;;;8.72;100.00
15794;BME280;7999;51.208;4.244;2022-11-15T00:05:18;100748.81;;;8.76;100.00
15794;BME280;7999;51.208;4.244;2022-11-15T00:08:04;100752.34;;;8.82;100.00
15794;BME280;7999;51.208;4.244;2022-11-15T00:10:56;100746.31;;;8.86;100.00
15794;BME280;7999;51.208;4.244;2022-11-15T00:13:41;100749.78;;;8.94;100.00
15794;BME280;7999;51.208;4.244;2022-11-15T00:16:26;100744.63;;;9.01;100.00
15794;BME280;7999;51.208;4.244;2022-11-15T00:19:11;100749.00;;;9.11;100.00
15794;BME280;7999;51.208;4.244;2022-11-15T00:21:57;100749.03;;;9.15;100.00
15794;BME280;7999;51.208;4.244;2022-11-15T00:24:44;100749.06;;;9.29;100.00
15794;BME280;7999;51.208;4.244;2022-11-15T00:27:29;100749.91;;;9.28;100.00
15794;BME280;7999;51.208;4.244;2022-11-15T00:30:14;100745.66;;;9.41;100.00
15794;BME280;7999;51.208;4.244;2022-11-15T00:33:01;100756.91;;;9.50;100.00
15794;BME280;7999;51.208;4.244;2022-11-15T00:35:46;100743.13;;;9.60;100.00
15794;BME280;7999;51.208;4.244;2022-11-15T00:38:32;100748.31;;;9.73;100.00
15794;BME280;7999;51.208;4.244;2022-11-15T00:41:19;100753.50;;;9.77;100.00
15794;BME280;7999;51.208;4.244;2022-11-15T00:44:04;100751.78;;;9.84;100.00
15794;BME280;7999;51.208;4.244;2022-11-15T00:46:50;100750.94;;;9.86;100.00
15794;BME280;7999;51.208;4.244;2022-11-15T00:49:35;100753.53;;;9.85;100.00
15794;BME280;7999;51.208;4.244;2022-11-15T00:52:20;100750.09;;;9.98;100.00
15794;BME280;7999;51.208;4.244;2022-11-15T00:55:05;100740.56;;;10.00;100.00
15794;BME280;7999;51.208;4.244;2022-11-15T00:57:52;100744.03;;;10.04;100.00
15794;BME280;7999;51.208;4.244;2022-11-15T01:00:37;100739.69;;;9.98;100.00
15794;BME280;7999;51.208;4.244;2022-11-15T01:03:22;100744.88;;;10.04;100.00
15794;BME280;7999;51.208;4.244;2022-11-15T01:06:07;100734.50;;;10.01;100.00
15794;BME280;7999;51.208;4.244;2022-11-15T01:08:53;100737.97;;;10.06;100.00
15794;BME280;7999;51.208;4.244;2022-11-15T01:11:38;100737.09;;;10.07;100.00
15794;BME280;7999;51.208;4.244;2022-11-15T01:14:24;100734.50;;;10.04;100.00
15794;BME280;7999;51.208;4.244;2022-11-15T01:17:09;100733.63;;;10.05;100.00
15794;BME280;7999;51.208;4.244;2022-11-15T01:19:55;100731.91;;;9.98;100.00
15794;BME280;7999;51.208;4.244;2022-11-15T01:22:40;100739.69;;;10.01;100.00
15794;BME280;7999;51.208;4.244;2022-11-15T01:25:26;100736.22;;;9.99;100.00
15794;BME280;7999;51.208;4.244;2022-11-15T01:28:11;100737.97;;;9.99;100.00
15794;BME280;7999;51.208;4.244;2022-11-15T01:30:58;100735.38;;;10.00;100.00
15794;BME280;7999;51.208;4.244;2022-11-15T01:33:44;100731.91;;;10.01;100.00
15794;BME280;7999;51.208;4.244;2022-11-15T01:36:30;100728.44;;;10.02;100.00
15794;BME280;7999;51.208;4.244;2022-11-15T01:39:15;100737.97;;;10.06;100.00
15794;BME280;7999;51.208;4.244;2022-11-15T01:42:00;100733.66;;;10.17;100.00
15794;BME280;7999;51.208;4.244;2022-11-15T01:44:46;100734.53;;;10.16;100.00
15794;BME280;7999;51.208;4.244;2022-11-15T01:47:35;100731.03;;;10.08;100.00
15794;BME280;7999;51.208;4.244;2022-11-15T01:50:22;100718.91;;;10.07;100.00
15794;BME280;7999;51.208;4.244;2022-11-15T01:53:11;100722.41;;;10.21;100.00
15794;BME280;7999;51.208;4.244;2022-11-15T01:55:56;100715.50;;;10.20;100.00
15794;BME280;7999;51.208;4.244;2022-11-15T01:58:42;100724.13;;;10.16;100.00
15794;BME280;7999;51.208;4.244;2022-11-15T02:01:29;100714.63;;;10.26;100.00
15794;BME280;7999;51.208;4.244;2022-11-15T02:04:18;100710.28;;;10.19;100.00
15794;BME280;7999;51.208;4.244;2022-11-15T02:07:05;100705.97;;;10.23;100.00
15794;BME280;7999;51.208;4.244;2022-11-15T02:09:51;100701.59;;;10.32;100.00
15794;BME280;7999;51.208;4.244;2022-11-15T02:12:37;100698.13;;;10.35;100.00
15794;BME280;7999;51.208;4.244;2022-11-15T02:15:23;100712.00;;;10.34;100.00
15794;BME280;7999;51.208;4.244;2022-11-15T02:18:10;100703.34;;;10.32;100.00
15794;BME280;7999;51.208;4.244;2022-11-15T02:21:07;100703.34;;;10.30;100.00
15794;BME280;7999;51.208;4.244;2022-11-15T02:30:19;100691.22;;;10.35;100.00
15794;BME280;7999;51.208;4.244;2022-11-15T02:33:07;100699.88;;;10.30;100.00
15794;BME280;7999;51.208;4.244;2022-11-15T02:35:57;100692.09;;;10.43;100.00
15794;BME280;7999;51.208;4.244;2022-11-15T02:38:44;100687.72;;;10.38;100.00
15794;BME280;7999;51.208;4.244;2022-11-15T02:41:34;100689.47;;;10.36;100.00
15794;BME280;7999;51.208;4.244;2022-11-15T02:44:24;100683.41;;;10.37;100.00
15794;BME280;7999;51.208;4.244;2022-11-15T02:47:12;100684.25;;;10.39;100.00
15794;BME280;7999;51.208;4.244;2022-11-15T02:50:00;100679.94;;;10.36;100.00
15794;BME280;7999;51.208;4.244;2022-11-15T02:52:47;100667.81;;;10.47;100.00
15794;BME280;7999;51.208;4.244;2022-11-15T02:55:34;100661.78;;;10.41;100.00
15794;BME280;7999;51.208;4.244;2022-11-15T02:58:27;100653.09;;;10.42;100.00
15794;BME280;7999;51.208;4.244;2022-11-15T03:01:19;100640.97;;;10.41;100.00
15794;BME280;7999;51.208;4.244;2022-11-15T03:04:14;100647.88;;;10.48;100.00
15794;BME280;7999;51.208;4.244;2022-11-15T03:07:05;100653.09;;;10.39;100.00
15794;BME280;7999;51.208;4.244;2022-11-15T03:09:53;100653.97;;;10.36;100.00
15794;BME280;7999;51.208;4.244;2022-11-15T03:12:41;100655.69;;;10.34;100.00
15794;BME280;7999;51.208;4.244;2022-11-15T03:15:28;100650.47;;;10.40;100.00
15794;BME280;7999;51.208;4.244;2022-11-15T03:18:15;100655.72;;;10.30;100.00
15794;BME280;7999;51.208;4.244;2022-11-15T03:21:06;100665.22;;;10.34;100.00
15794;BME280;7999;51.208;4.244;2022-11-15T03:23:52;100657.44;;;10.29;100.00
15794;BME280;7999;51.208;4.244;2022-11-15T03:26:38;100661.78;;;10.26;100.00
15794;BME280;7999;51.208;4.244;2022-11-15T03:29:26;100668.69;;;10.31;100.00
15794;BME280;7999;51.208;4.244;2022-11-15T03:32:12;100673.06;;;10.23;100.00
15794;BME280;7999;51.208;4.244;2022-11-15T03:35:01;100678.22;;;10.31;100.00
15794;BME280;7999;51.208;4.244;2022-11-15T03:37:50;100679.09;;;10.27;100.00
15794;BME280;7999;51.208;4.244;2022-11-15T03:40:38;100680.84;;;10.25;100.00
15794;BME280;7999;51.208;4.244;2022-11-15T03:43:26;100680.84;;;10.28;100.00
15794;BME280;7999;51.208;4.244;2022-11-15T03:46:14;100686.03;;;10.25;100.00
15794;BME280;7999;51.208;4.244;2022-11-15T03:49:04;100679.97;;;10.24;100.00
15794;BME280;7999;51.208;4.244;2022-11-15T03:51:51;100675.63;;;10.28;100.00
15794;BME280;7999;51.208;4.244;2022-11-15T03:54:38;100683.41;;;10.18;100.00
15794;BME280;7999;51.208;4.244;2022-11-15T03:57:32;100676.50;;;10.17;100.00
15794;BME280;7999;51.208;4.244;2022-11-15T04:00:17;100672.16;;;10.16;100.00
15794;BME280;7999;51.208;4.244;2022-11-15T04:03:02;100672.16;;;10.13;100.00
15794;BME280;7999;51.208;4.244;2022-11-15T04:05:47;100665.25;;;10.15;100.00
15794;BME280;7999;51.208;4.244;2022-11-15T04:08:32;100668.69;;;10.11;100.00
15794;BME280;7999;51.208;4.244;2022-11-15T04:11:18;100672.16;;;10.16;100.00
15794;BME280;7999;51.208;4.244;2022-11-15T04:14:04;100670.41;;;10.12;100.00
15794;BME280;7999;51.208;4.244;2022-11-15T04:16:49;100660.88;;;10.13;100.00
15794;BME280;7999;51.208;4.244;2022-11-15T04:19:34;100654.84;;;10.09;100.00
15794;BME280;7999;51.208;4.244;2022-11-15T04:22:37;100654.84;;;10.06;100.00
15794;BME280;7999;51.208;4.244;2022-11-15T04:25:40;100655.72;;;10.07;100.00
15794;BME280;7999;51.208;4.244;2022-11-15T04:28:27;100655.72;;;10.01;100.00
15794;BME280;7999;51.208;4.244;2022-11-15T04:31:12;100658.34;;;9.93;100.00
15794;BME280;7999;51.208;4.244;2022-11-15T04:33:57;100660.91;;;9.99;100.00
15794;BME280;7999;51.208;4.244;2022-11-15T04:36:43;100656.59;;;10.01;100.00
15794;BME280;7999;51.208;4.244;2022-11-15T04:39:46;100671.31;;;9.96;100.00
15794;BME280;7999;51.208;4.244;2022-11-15T04:42:31;100672.19;;;9.98;100.00
15794;BME280;7999;51.208;4.244;2022-11-15T04:45:17;100675.66;;;9.94;100.00
15794;BME280;7999;51.208;4.244;2022-11-15T04:48:03;100679.13;;;9.87;100.00
15794;BME280;7999;51.208;4.244;2022-11-15T04:50:48;100667.88;;;9.86;100.00
15794;BME280;7999;51.208;4.244;2022-11-15T04:53:33;100668.72;;;9.87;100.00
15794;BME280;7999;51.208;4.244;2022-11-15T04:56:18;100668.72;;;9.87;100.00
15794;BME280;7999;51.208;4.244;2022-11-15T04:59:03;100665.25;;;9.82;100.00
15794;BME280;7999;51.208;4.244;2022-11-15T05:01:50;100661.78;;;9.80;100.00
15794;BME280;7999;51.208;4.244;2022-11-15T05:04:36;100666.09;;;9.84;100.00
15794;BME280;7999;51.208;4.244;2022-11-15T05:07:20;100656.59;;;9.83;100.00
15794;BME280;7999;51.208;4.244;2022-11-15T05:10:06;100658.34;;;9.72;100.00
15794;BME280;7999;51.208;4.244;2022-11-15T05:12:51;100655.75;;;9.67;100.00
15794;BME280;7999;51.208;4.244;2022-11-15T05:15:37;100655.75;;;9.69;100.00
15794;BME280;7999;51.208;4.244;2022-11-15T05:18:24;100670.41;;;9.57;100.00
15794;BME280;7999;51.208;4.244;2022-11-15T05:21:09;100659.19;;;9.54;100.00
15794;BME280;7999;51.208;4.244;2022-11-15T05:23:55;100656.59;;;9.43;100.00
15794;BME280;7999;51.208;4.244;2022-11-15T05:26:41;100654.84;;;9.36;100.00
15794;BME280;7999;51.208;4.244;2022-11-15T05:29:26;100655.72;;;9.32;100.00
15794;BME280;7999;51.208;4.244;2022-11-15T05:32:11;100666.06;;;9.30;100.00
15794;BME280;7999;51.208;4.244;2022-11-15T05:34:58;100666.91;;;9.22;100.00
15794;BME280;7999;51.208;4.244;2022-11-15T05:37:43;100668.63;;;9.20;100.00
15794;BME280;7999;51.208;4.244;2022-11-15T05:40:29;100670.34;;;9.18;100.00
15794;BME280;7999;51.208;4.244;2022-11-15T05:43:15;100669.50;;;9.14;100.00
15794;BME280;7999;51.208;4.244;2022-11-15T05:46:00;100670.34;;;9.12;100.00
15794;BME280;7999;51.208;4.244;2022-11-15T05:48:48;100671.22;;;9.12;100.00
15794;BME280;7999;51.208;4.244;2022-11-15T05:51:35;100670.34;;;9.09;100.00
15794;BME280;7999;51.208;4.244;2022-11-15T05:54:21;100668.56;;;8.95;100.00
15794;BME280;7999;51.208;4.244;2022-11-15T05:57:07;100666.81;;;8.91;100.00
15794;BME280;7999;51.208;4.244;2022-11-15T05:59:53;100666.84;;;8.99;100.00
15794;BME280;7999;51.208;4.244;2022-11-15T06:02:38;100670.28;;;8.93;100.00
15794;BME280;7999;51.208;4.244;2022-11-15T06:05:24;100658.13;;;8.77;100.00
15794;BME280;7999;51.208;4.244;2022-11-15T06:08:10;100661.63;;;8.85;100.00
15794;BME280;7999;51.208;4.244;2022-11-15T06:10:56;100665.00;;;8.75;100.00
15794;BME280;7999;51.208;4.244;2022-11-15T06:13:41;100671.97;;;8.79;100.00
15794;BME280;7999;51.208;4.244;2022-11-15T06:16:26;100668.44;;;8.63;100.00
15794;BME280;7999;51.208;4.244;2022-11-15T06:19:11;100663.25;;;8.62;100.00
15794;BME280;7999;51.208;4.244;2022-11-15T06:21:56;100662.38;;;8.66;100.00
15794;BME280;7999;51.208;4.244;2022-11-15T06:24:43;100663.31;;;8.77;100.00
15794;BME280;7999;51.208;4.244;2022-11-15T06:27:29;100663.25;;;8.68;100.00
15794;BME280;7999;51.208;4.244;2022-11-15T06:30:14;100668.44;;;8.68;100.00
15794;BME280;7999;51.208;4.244;2022-11-15T06:32:59;100673.63;;;8.66;100.00
15794;BME280;7999;51.208;4.244;2022-11-15T06:35:46;100668.44;;;8.68;100.00
15794;BME280;7999;51.208;4.244;2022-11-15T06:38:31;100667.56;;;8.64;100.00
15794;BME280;7999;51.208;4.244;2022-11-15T06:41:17;100670.16;;;8.63;100.00
15794;BME280;7999;51.208;4.244;2022-11-15T06:44:05;100658.91;;;8.61;100.00
15794;BME280;7999;51.208;4.244;2022-11-15T06:46:50;100663.22;;;8.60;100.00
15794;BME280;7999;51.208;4.244;2022-11-15T06:49:35;100667.53;;;8.57;100.00
15794;BME280;7999;51.208;4.244;2022-11-15T06:52:21;100664.94;;;8.54;100.00
15794;BME280;7999;51.208;4.244;2022-11-15T06:55:07;100664.06;;;8.55;100.00
15794;BME280;7999;51.208;4.244;2022-11-15T06:57:54;100664.00;;;8.46;100.00
15794;BME280;7999;51.208;4.244;2022-11-15T07:00:39;100664.00;;;8.47;100.00
15794;BME280;7999;51.208;4.244;2022-11-15T07:03:24;100668.31;;;8.47;100.00
15794;BME280;7999;51.208;4.244;2022-11-15T07:06:10;100666.59;;;8.49;100.00
15794;BME280;7999;51.208;4.244;2022-11-15T07:08:55;100668.31;;;8.44;100.00
15794;BME280;7999;51.208;4.244;2022-11-15T07:11:41;100668.28;;;8.39;100.00
15794;BME280;7999;51.208;4.244;2022-11-15T07:14:27;100675.19;;;8.39;100.00
15794;BME280;7999;51.208;4.244;2022-11-15T07:17:12;100668.28;;;8.38;100.00
15794;BME280;7999;51.208;4.244;2022-11-15T07:19:57;100668.28;;;8.38;100.00
15794;BME280;7999;51.208;4.244;2022-11-15T07:22:43;100670.88;;;8.38;100.00
15794;BME280;7999;51.208;4.244;2022-11-15T07:25:29;100671.75;;;8.38;100.00
15794;BME280;7999;51.208;4.244;2022-11-15T07:28:14;100653.53;;;8.26;100.00
15794;BME280;7999;51.208;4.244;2022-11-15T07:31:04;100654.41;;;8.31;100.00
15794;BME280;7999;51.208;4.244;2022-11-15T07:33:49;100669.94;;;8.32;100.00
15794;BME280;7999;51.208;4.244;2022-11-15T07:36:34;100675.19;;;8.35;100.00
15794;BME280;7999;51.208;4.244;2022-11-15T07:39:19;100673.47;;;8.41;100.00
15794;BME280;7999;51.208;4.244;2022-11-15T07:42:05;100672.63;;;8.40;100.00
15794;BME280;7999;51.208;4.244;2022-11-15T07:45:08;100664.00;;;8.44;100.00
15794;BME280;7999;51.208;4.244;2022-11-15T07:47:54;100661.47;;;8.52;100.00
15794;BME280;7999;51.208;4.244;2022-11-15T07:50:40;100661.44;;;8.49;100.00
15794;BME280;7999;51.208;4.244;2022-11-15T07:53:26;100663.19;;;8.50;100.00
15794;BME280;7999;51.208;4.244;2022-11-15T07:56:11;100652.81;;;8.50;100.00
15794;BME280;7999;51.208;4.244;2022-11-15T07:58:57;100645.94;;;8.55;100.00
15794;BME280;7999;51.208;4.244;2022-11-15T08:01:43;100635.56;;;8.52;100.00
15794;BME280;7999;51.208;4.244;2022-11-15T08:04:29;100625.22;;;8.55;100.00
15794;BME280;7999;51.208;4.244;2022-11-15T08:07:15;100621.78;;;8.63;100.00
15794;BME280;7999;51.208;4.244;2022-11-15T08:10:00;100621.78;;;8.65;100.00
15794;BME280;7999;51.208;4.244;2022-11-15T08:12:47;100621.88;;;8.83;100.00
15794;BME280;7999;51.208;4.244;2022-11-15T08:15:33;100614.09;;;8.88;100.00
15794;BME280;7999;51.208;4.244;2022-11-15T08:18:19;100612.38;;;8.97;100.00
15794;BME280;7999;51.208;4.244;2022-11-15T08:21:06;100601.19;;;9.08;100.00
15794;BME280;7999;51.208;4.244;2022-11-15T08:23:51;100603.78;;;9.15;100.00
15794;BME280;7999;51.208;4.244;2022-11-15T08:26:36;100599.50;;;9.43;100.00
15794;BME280;7999;51.208;4.244;2022-11-15T08:29:22;100609.84;;;9.98;100.00
15794;BME280;7999;51.208;4.244;2022-11-15T08:32:07;100600.31;;;10.08;100.00
15794;BME280;7999;51.208;4.244;2022-11-15T08:34:53;100597.75;;;9.88;100.00
15794;BME280;7999;51.208;4.244;2022-11-15T08:37:40;100604.66;;;10.03;100.00
15794;BME280;7999;51.208;4.244;2022-11-15T08:40:25;100601.19;;;9.99;99.86
15794;BME280;7999;51.208;4.244;2022-11-15T08:43:11;100595.16;;;9.88;99.56
15794;BME280;7999;51.208;4.244;2022-11-15T08:45:57;100597.75;;;9.76;99.84
15794;BME280;7999;51.208;4.244;2022-11-15T08:48:42;100595.16;;;9.88;99.30
15794;BME280;7999;51.208;4.244;2022-11-15T08:51:27;100589.91;;;10.15;95.82
15794;BME280;7999;51.208;4.244;2022-11-15T08:54:14;100585.56;;;10.28;95.05
15794;BME280;7999;51.208;4.244;2022-11-15T08:57:06;100593.22;;;10.71;94.25
15794;BME280;7999;51.208;4.244;2022-11-15T09:00:00;100590.72;;;10.48;93.22
15794;BME280;7999;51.208;4.244;2022-11-15T09:02:45;100588.09;;;10.49;92.69
15794;BME280;7999;51.208;4.244;2022-11-15T09:05:31;100587.16;;;10.64;91.70
15794;BME280;7999;51.208;4.244;2022-11-15T09:08:16;100587.69;;;11.21;88.36
15794;BME280;7999;51.208;4.244;2022-11-15T09:11:04;100582.22;;;11.58;88.03
15794;BME280;7999;51.208;4.244;2022-11-15T09:13:49;100585.53;;;11.73;85.90
15794;BME280;7999;51.208;4.244;2022-11-15T09:16:35;100582.31;;;11.44;85.67
15794;BME280;7999;51.208;4.244;2022-11-15T09:19:21;100580.06;;;10.94;88.21
15794;BME280;7999;51.208;4.244;2022-11-15T09:22:06;100579.06;;;11.16;88.80
15794;BME280;7999;51.208;4.244;2022-11-15T09:24:52;100576.72;;;10.73;89.54
15794;BME280;7999;51.208;4.244;2022-11-15T09:27:38;100568.13;;;10.59;89.57
15794;BME280;7999;51.208;4.244;2022-11-15T09:30:24;100555.13;;;10.58;89.99
15794;BME280;7999;51.208;4.244;2022-11-15T09:33:10;100554.31;;;10.51;90.36
15794;BME280;7999;51.208;4.244;2022-11-15T09:36:00;100556.00;;;10.58;89.87
15794;BME280;7999;51.208;4.244;2022-11-15T09:38:46;100558.59;;;10.60;90.08
15794;BME280;7999;51.208;4.244;2022-11-15T09:41:37;100559.38;;;10.75;88.23
15794;BME280;7999;51.208;4.244;2022-11-15T09:44:33;100550.75;;;10.70;88.00
15794;BME280;7999;51.208;4.244;2022-11-15T09:47:27;100552.38;;;10.87;86.65
15794;BME280;7999;51.208;4.244;2022-11-15T09:50:28;100550.38;;;11.22;85.69
15794;BME280;7999;51.208;4.244;2022-11-15T09:52:57;100538.00;;;11.55;83.12
15794;BME280;7999;51.208;4.244;2022-11-15T09:55:26;100540.31;;;11.87;82.33
15794;BME280;7999;51.208;4.244;2022-11-15T09:57:59;100537.50;;;12.06;81.18
15794;BME280;7999;51.208;4.244;2022-11-15T10:00:30;100535.75;;;12.04;81.11
15794;BME280;7999;51.208;4.244;2022-11-15T10:03:10;100542.31;;;11.56;82.56
15794;BME280;7999;51.208;4.244;2022-11-15T10:05:38;100530.91;;;11.67;83.34
15794;BME280;7999;51.208;4.244;2022-11-15T10:08:09;100522.41;;;11.52;82.87
15794;BME280;7999;51.208;4.244;2022-11-15T10:10:38;100510.34;;;11.38;83.10
15794;BME280;7999;51.208;4.244;2022-11-15T10:13:06;100505.13;;;11.41;83.01
15794;BME280;7999;51.208;4.244;2022-11-15T10:15:42;100503.53;;;11.28;83.24
15794;BME280;7999;51.208;4.244;2022-11-15T10:18:16;100491.22;;;11.42;82.68
15794;BME280;7999;51.208;4.244;2022-11-15T10:20:48;100492.97;;;11.43;83.00
15794;BME280;7999;51.208;4.244;2022-11-15T10:23:16;100479.06;;;11.44;82.16
15794;BME280;7999;51.208;4.244;2022-11-15T10:25:44;100487.63;;;11.59;82.20
15794;BME280;7999;51.208;4.244;2022-11-15T10:28:12;100486.66;;;11.67;81.75
15794;BME280;7999;51.208;4.244;2022-11-15T10:30:42;100488.28;;;11.81;81.23
15794;BME280;7999;51.208;4.244;2022-11-15T10:33:21;100471.94;;;11.65;81.30
15794;BME280;7999;51.208;4.244;2022-11-15T10:35:53;100468.31;;;11.75;80.16
15794;BME280;7999;51.208;4.244;2022-11-15T10:38:49;100458.53;;;12.00;79.20
15794;BME280;7999;51.208;4.244;2022-11-15T10:41:19;100472.41;;;12.00;80.88
15794;BME280;7999;51.208;4.244;2022-11-15T10:44:00;100459.28;;;12.10;79.59
15794;BME280;7999;51.208;4.244;2022-11-15T10:46:29;100449.59;;;12.21;79.13
15794;BME280;7999;51.208;4.244;2022-11-15T10:49:01;100448.75;;;12.19;78.75
15794;BME280;7999;51.208;4.244;2022-11-15T10:51:40;100445.06;;;12.35;78.50
15794;BME280;7999;51.208;4.244;2022-11-15T10:54:07;100440.56;;;12.45;78.03
15794;BME280;7999;51.208;4.244;2022-11-15T10:56:36;100434.00;;;12.18;77.20
15794;BME280;7999;51.208;4.244;2022-11-15T10:59:04;100435.91;;;12.03;78.05
15794;BME280;7999;51.208;4.244;2022-11-15T11:01:32;100416.84;;;12.00;78.62
15794;BME280;7999;51.208;4.244;2022-11-15T11:04:11;100419.31;;;12.11;78.24
15794;BME280;7999;51.208;4.244;2022-11-15T11:06:45;100409.75;;;12.11;77.71
15794;BME280;7999;51.208;4.244;2022-11-15T11:09:20;100405.53;;;12.01;77.50
15794;BME280;7999;51.208;4.244;2022-11-15T11:11:49;100403.75;;;12.04;77.49
15794;BME280;7999;51.208;4.244;2022-11-15T11:14:19;100395.09;;;12.02;76.83
15794;BME280;7999;51.208;4.244;2022-11-15T11:16:49;100383.00;;;11.98;77.43
15794;BME280;7999;51.208;4.244;2022-11-15T11:19:29;100376.03;;;12.00;77.29
15794;BME280;7999;51.208;4.244;2022-11-15T11:22:01;100372.56;;;11.98;76.98
15794;BME280;7999;51.208;4.244;2022-11-15T11:24:31;100370.81;;;12.00;76.97
15794;BME280;7999;51.208;4.244;2022-11-15T11:27:04;100359.44;;;12.07;76.45
15794;BME280;7999;51.208;4.244;2022-11-15T11:29:41;100344.66;;;12.10;76.39
15794;BME280;7999;51.208;4.244;2022-11-15T11:32:17;100343.44;;;12.33;76.13
15794;BME280;7999;51.208;4.244;2022-11-15T11:34:50;100347.13;;;12.19;76.12
15794;BME280;7999;51.208;4.244;2022-11-15T11:37:24;100349.66;;;12.22;75.61
15794;BME280;7999;51.208;4.244;2022-11-15T11:39:58;100342.53;;;12.36;75.98
15794;BME280;7999;51.208;4.244;2022-11-15T11:42:31;100342.03;;;12.10;76.45
15794;BME280;7999;51.208;4.244;2022-11-15T11:45:03;100326.47;;;12.06;76.66
15794;BME280;7999;51.208;4.244;2022-11-15T11:47:35;100329.94;;;12.05;76.82
15794;BME280;7999;51.208;4.244;2022-11-15T11:50:10;100325.63;;;12.01;77.14
15794;BME280;7999;51.208;4.244;2022-11-15T11:52:39;100323.75;;;12.13;76.21
15794;BME280;7999;51.208;4.244;2022-11-15T11:55:12;100320.22;;;12.17;76.35
15794;BME280;7999;51.208;4.244;2022-11-15T11:57:41;100325.50;;;12.12;76.52
15794;BME280;7999;51.208;4.244;2022-11-15T12:00:14;100309.78;;;12.17;76.14
15794;BME280;7999;51.208;4.244;2022-11-15T12:02:44;100299.22;;;12.26;76.50
15794;BME280;7999;51.208;4.244;2022-11-15T12:05:13;100299.28;;;12.23;76.41
15794;BME280;7999;51.208;4.244;2022-11-15T12:07:42;100301.00;;;12.22;75.88
15794;BME280;7999;51.208;4.244;2022-11-15T12:10:15;100287.84;;;12.33;76.15
15794;BME280;7999;51.208;4.244;2022-11-15T12:12:44;100289.72;;;12.23;76.44
15794;BME280;7999;51.208;4.244;2022-11-15T12:15:14;100284.47;;;12.25;77.30
15794;BME280;7999;51.208;4.244;2022-11-15T12:17:42;100275.09;;;12.15;77.59
15794;BME280;7999;51.208;4.244;2022-11-15T12:20:15;100272.25;;;12.28;77.14
15794;BME280;7999;51.208;4.244;2022-11-15T12:22:43;100276.53;;;12.31;77.63
15794;BME280;7999;51.208;4.244;2022-11-15T12:25:14;100264.59;;;12.18;77.61
15794;BME280;7999;51.208;4.244;2022-11-15T12:27:45;100267.19;;;12.19;77.75
15794;BME280;7999;51.208;4.244;2022-11-15T12:30:16;100255.03;;;12.20;77.44
15794;BME280;7999;51.208;4.244;2022-11-15T12:32:49;100243.59;;;12.27;77.03
15794;BME280;7999;51.208;4.244;2022-11-15T12:35:23;100248.63;;;12.39;77.07
15794;BME280;7999;51.208;4.244;2022-11-15T12:37:50;100244.38;;;12.32;76.88
15794;BME280;7999;51.208;4.244;2022-11-15T12:40:19;100236.75;;;12.21;77.97
15794;BME280;7999;51.208;4.244;2022-11-15T12:43:10;100234.13;;;12.23;78.38
15794;BME280;7999;51.208;4.244;2022-11-15T12:45:53;100223.66;;;12.24;77.37
15794;BME280;7999;51.208;4.244;2022-11-15T12:51:06;100213.16;;;12.29;77.23
15794;BME280;7999;51.208;4.244;2022-11-15T12:53:33;100193.19;;;12.28;77.84
15794;BME280;7999;51.208;4.244;2022-11-15T12:58:53;100193.25;;;12.25;78.19
15794;BME280;7999;51.208;4.244;2022-11-15T13:04:11;100180.97;;;12.31;78.34
15794;BME280;7999;51.208;4.244;2022-11-15T13:06:42;100176.63;;;12.33;77.95
15794;BME280;7999;51.208;4.244;2022-11-15T13:11:55;100167.41;;;12.14;78.28
15794;BME280;7999;51.208;4.244;2022-11-15T13:14:37;100168.06;;;12.24;78.72
15794;BME280;7999;51.208;4.244;2022-11-15T13:17:12;100160.16;;;12.30;78.43
15794;BME280;7999;51.208;4.244;2022-11-15T13:19:43;100159.19;;;12.35;78.96
15794;BME280;7999;51.208;4.244;2022-11-15T13:22:12;100155.66;;;12.40;79.41
15794;BME280;7999;51.208;4.244;2022-11-15T13:24:57;100141.81;;;12.36;78.78
15794;BME280;7999;51.208;4.244;2022-11-15T13:27:24;100137.38;;;12.41;78.59
15794;BME280;7999;51.208;4.244;2022-11-15T13:29:51;100132.28;;;12.35;78.61
15794;BME280;7999;51.208;4.244;2022-11-15T13:32:18;100134.91;;;12.32;79.02
15794;BME280;7999;51.208;4.244;2022-11-15T13:34:46;100133.16;;;12.34;78.95
15794;BME280;7999;51.208;4.244;2022-11-15T13:37:28;100121.84;;;12.35;79.10
15794;BME280;7999;51.208;4.244;2022-11-15T13:39:57;100122.72;;;12.35;79.08
15794;BME280;7999;51.208;4.244;2022-11-15T13:42:37;100112.13;;;12.43;78.99
15794;BME280;7999;51.208;4.244;2022-11-15T13:45:04;100110.53;;;12.36;79.39
15794;BME280;7999;51.208;4.244;2022-11-15T13:47:31;100103.50;;;12.40;79.60
15794;BME280;7999;51.208;4.244;2022-11-15T13:49:58;100107.94;;;12.36;79.65
15794;BME280;7999;51.208;4.244;2022-11-15T13:52:26;100112.22;;;12.38;80.24
15794;BME280;7999;51.208;4.244;2022-11-15T13:54:57;100102.94;;;12.24;80.36
15794;BME280;7999;51.208;4.244;2022-11-15T13:57:26;100100.34;;;12.22;80.75
15794;BME280;7999;51.208;4.244;2022-11-15T13:59:55;100095.19;;;12.21;81.08
15794;BME280;7999;51.208;4.244;2022-11-15T14:02:25;100090.81;;;12.21;81.61
15794;BME280;7999;51.208;4.244;2022-11-15T14:04:53;100079.38;;;12.28;81.01
15794;BME280;7999;51.208;4.244;2022-11-15T14:07:22;100076.94;;;12.21;81.64
15794;BME280;7999;51.208;4.244;2022-11-15T14:09:49;100076.03;;;12.22;81.58
15794;BME280;7999;51.208;4.244;2022-11-15T14:12:25;100083.88;;;12.22;81.68
15794;BME280;7999;51.208;4.244;2022-11-15T14:14:52;100066.56;;;12.18;81.72
15794;BME280;7999;51.208;4.244;2022-11-15T14:17:20;100063.06;;;12.19;82.14
15794;BME280;7999;51.208;4.244;2022-11-15T14:19:49;100067.41;;;12.20;82.43
15794;BME280;7999;51.208;4.244;2022-11-15T14:22:20;100059.66;;;12.17;83.34
15794;BME280;7999;51.208;4.244;2022-11-15T14:25:03;100055.41;;;12.11;84.13
15794;BME280;7999;51.208;4.244;2022-11-15T14:27:32;100059.03;;;12.02;85.18
15794;BME280;7999;51.208;4.244;2022-11-15T14:29:59;100049.41;;;12.07;85.45
15794;BME280;7999;51.208;4.244;2022-11-15T14:32:26;100055.50;;;12.05;85.14